地図

経路データ

SID SEASON NUMBER BASIN SUBBASIN NAME ISO_TIME NATURE LAT LON WMO_WIND WMO_PRES WMO_AGENCY TRACK_TYPE DIST2LAND LANDFALL IFLAG USA_AGENCY USA_ATCF_ID USA_LAT USA_LON USA_RECORD USA_STATUS USA_WIND USA_PRES USA_SSHS USA_R34_NE USA_R34_SE USA_R34_SW USA_R34_NW USA_R50_NE USA_R50_SE USA_R50_SW USA_R50_NW USA_R64_NE USA_R64_SE USA_R64_SW USA_R64_NW USA_POCI USA_ROCI USA_RMW USA_EYE TOKYO_LAT TOKYO_LON TOKYO_GRADE TOKYO_WIND TOKYO_PRES TOKYO_R50_DIR TOKYO_R50_LONG TOKYO_R50_SHORT TOKYO_R30_DIR TOKYO_R30_LONG TOKYO_R30_SHORT TOKYO_LAND CMA_LAT CMA_LON CMA_CAT CMA_WIND CMA_PRES HKO_LAT HKO_LON HKO_CAT HKO_WIND HKO_PRES NEWDELHI_LAT NEWDELHI_LON NEWDELHI_GRADE NEWDELHI_WIND NEWDELHI_PRES NEWDELHI_CI NEWDELHI_DP NEWDELHI_POCI REUNION_LAT REUNION_LON REUNION_TYPE REUNION_WIND REUNION_PRES REUNION_TNUM REUNION_CI REUNION_RMW REUNION_R34_NE REUNION_R34_SE REUNION_R34_SW REUNION_R34_NW REUNION_R50_NE REUNION_R50_SE REUNION_R50_SW REUNION_R50_NW REUNION_R64_NE REUNION_R64_SE REUNION_R64_SW REUNION_R64_NW BOM_LAT BOM_LON BOM_TYPE BOM_WIND BOM_PRES BOM_TNUM BOM_CI BOM_RMW BOM_R34_NE BOM_R34_SE BOM_R34_SW BOM_R34_NW BOM_R50_NE BOM_R50_SE BOM_R50_SW BOM_R50_NW BOM_R64_NE BOM_R64_SE BOM_R64_SW BOM_R64_NW BOM_ROCI BOM_POCI BOM_EYE BOM_POS_METHOD BOM_PRES_METHOD NADI_LAT NADI_LON NADI_CAT NADI_WIND NADI_PRES WELLINGTON_LAT WELLINGTON_LON WELLINGTON_WIND WELLINGTON_PRES DS824_LAT DS824_LON DS824_STAGE DS824_WIND DS824_PRES TD9636_LAT TD9636_LON TD9636_STAGE TD9636_WIND TD9636_PRES TD9635_LAT TD9635_LON TD9635_WIND TD9635_PRES TD9635_ROCI NEUMANN_LAT NEUMANN_LON NEUMANN_CLASS NEUMANN_WIND NEUMANN_PRES MLC_LAT MLC_LON MLC_CLASS MLC_WIND MLC_PRES USA_GUST BOM_GUST BOM_GUST_PER REUNION_GUST REUNION_GUST_PER USA_SEAHGT USA_SEARAD_NE USA_SEARAD_SE USA_SEARAD_SW USA_SEARAD_NW STORM_SPEED STORM_DIR
1912278N29272 1912 51 NA GM NOT_NAMED 1912-10-03 12:00:00 ET 28.5000 -88.5000 30 hurdat_atl main 80 80 O_____________ hurdat_atl AL051912 28.5000 -88.5000 EX 30 -4 11 85
1912278N29272 1912 51 NA GM NOT_NAMED 1912-10-03 15:00:00 ET 28.5505 -87.8601 main 120 120 P_____________ AL051912 28.5505 -87.8601 EX 30 -4 11 85
1912278N29272 1912 51 NA GM NOT_NAMED 1912-10-03 18:00:00 ET 28.6000 -87.2000 30 hurdat_atl main 183 162 O_____________ hurdat_atl AL051912 28.6000 -87.2000 EX 30 -4 12 85
1912278N29272 1912 51 NA GM NOT_NAMED 1912-10-03 21:00:00 ET 28.6498 -86.5074 main 162 118 P_____________ AL051912 28.6498 -86.5074 EX 30 -4 12 85
1912278N29272 1912 51 NA GM NOT_NAMED 1912-10-04 00:00:00 ET 28.7000 -85.8000 30 hurdat_atl main 118 111 O_____________ hurdat_atl AL051912 28.7000 -85.8000 EX 30 -4 12 86
1912278N29272 1912 51 NA GM NOT_NAMED 1912-10-04 03:00:00 ET 28.7421 -85.0998 main 111 100 P_____________ AL051912 28.7421 -85.0998 EX 30 -4 12 85
1912278N29272 1912 51 NA GM NOT_NAMED 1912-10-04 06:00:00 ET 28.8000 -84.4000 30 hurdat_atl main 111 75 O_____________ hurdat_atl AL051912 28.8000 -84.4000 EX 30 -4 12 83
1912278N29272 1912 51 NA GM NOT_NAMED 1912-10-04 09:00:00 ET 28.8919 -83.7150 main 67 19 P_____________ AL051912 28.8919 -83.7150 EX 30 -4 12 81
1912278N29272 1912 51 NA GM NOT_NAMED 1912-10-04 12:00:00 ET 29.0000 -83.0000 30 hurdat_atl main 19 0 O_____________ hurdat_atl AL051912 29.0000 -83.0000 EX 30 -4 13 81
1912278N29272 1912 51 NA NA NOT_NAMED 1912-10-04 15:00:00 ET 29.0995 -82.2298 main 0 0 P_____________ AL051912 29.0995 -82.2298 EX 30 -4 14 82
1912278N29272 1912 51 NA NA NOT_NAMED 1912-10-04 18:00:00 ET 29.2000 -81.4000 30 hurdat_atl main 0 0 O_____________ hurdat_atl AL051912 29.2000 -81.4000 EX 30 -4 15 83
1912278N29272 1912 51 NA NA NOT_NAMED 1912-10-04 21:00:00 ET 29.2922 -80.5146 main 44 44 P_____________ AL051912 29.2922 -80.5146 EX 32 -4 16 83
1912278N29272 1912 51 NA NA NOT_NAMED 1912-10-05 00:00:00 ET 29.4000 -79.6000 35 hurdat_atl main 129 129 O_____________ hurdat_atl AL051912 29.4000 -79.6000 EX 35 -4 16 84
1912278N29272 1912 51 NA NA NOT_NAMED 1912-10-05 03:00:00 ET 29.4669 -78.6979 main 207 207 P_____________ AL051912 29.4669 -78.6979 EX 37 -4 16 79
1912278N29272 1912 51 NA NA NOT_NAMED 1912-10-05 06:00:00 ET 29.7000 -77.8000 40 hurdat_atl main 294 294 O_____________ hurdat_atl AL051912 29.7000 -77.8000 EX 40 -4 18 61
1912278N29272 1912 51 NA NA NOT_NAMED 1912-10-05 09:00:00 ET 30.3504 -76.8436 main 379 373 P_____________ AL051912 30.3504 -76.8436 EX 42 -4 20 50
1912278N29272 1912 51 NA NA NOT_NAMED 1912-10-05 12:00:00 ET 31.0000 -76.0000 45 hurdat_atl main 373 368 O_____________ hurdat_atl AL051912 31.0000 -76.0000 EX 45 -4 15 55
1912278N29272 1912 51 NA NA NOT_NAMED 1912-10-05 15:00:00 ET 31.2242 -75.4079 main 387 384 P_____________ AL051912 31.2242 -75.4079 EX 47 -4 9 71
1912278N29272 1912 51 NA NA NOT_NAMED 1912-10-05 18:00:00 ET 31.3000 -75.0000 50 hurdat_atl main 403 396 O_____________ hurdat_atl AL051912 31.3000 -75.0000 EX 50 -4 7 70
1912278N29272 1912 51 NA NA NOT_NAMED 1912-10-05 21:00:00 ET 31.4573 -74.6474 main 398 392 P_____________ AL051912 31.4573 -74.6474 EX 52 -4 6 60
1912278N29272 1912 51 NA NA NOT_NAMED 1912-10-06 00:00:00 TS 31.6000 -74.4000 55 hurdat_atl main 396 391 O_____________ hurdat_atl AL051912 31.6000 -74.4000 TS 55 0 4 56
1912278N29272 1912 51 NA NA NOT_NAMED 1912-10-06 03:00:00 TS 31.7074 -74.2124 main 396 392 P_____________ AL051912 31.7074 -74.2124 TS 60 0 3 52
1912278N29272 1912 51 NA NA NOT_NAMED 1912-10-06 06:00:00 TS 31.8000 -74.1000 65 hurdat_atl main 392 388 O_____________ hurdat_atl AL051912 31.8000 -74.1000 HU 65 1 3 43
1912278N29272 1912 51 NA NA NOT_NAMED 1912-10-06 09:00:00 TS 31.9000 -74.0050 main 388 379 P_____________ AL051912 31.9000 -74.0050 HU 70 1 2 25
1912278N29272 1912 51 NA NA NOT_NAMED 1912-10-06 12:00:00 TS 32.0000 -74.0000 75 hurdat_atl main 379 365 O_____________ hurdat_atl AL051912 32.0000 -74.0000 HU 75 1 2 337
1912278N29272 1912 51 NA NA NOT_NAMED 1912-10-06 15:00:00 TS 32.0999 -74.0975 main 365 345 P_____________ AL051912 32.0999 -74.0975 HU 77 1 3 308
1912278N29272 1912 51 NA NA NOT_NAMED 1912-10-06 18:00:00 TS 32.2000 -74.3000 80 hurdat_atl main 345 320 O_____________ hurdat_atl AL051912 32.2000 -74.3000 HU 80 1 5 299
1912278N29272 1912 51 NA NA NOT_NAMED 1912-10-06 21:00:00 TS 32.3226 -74.5773 main 320 296 P_____________ AL051912 32.3226 -74.5773 HU 80 1 5 292
1912278N29272 1912 51 NA NA NOT_NAMED 1912-10-07 00:00:00 TS 32.4000 -74.9000 80 hurdat_atl main 296 283 O_____________ hurdat_atl AL051912 32.4000 -74.9000 HU 80 1 5 276
1912278N29272 1912 51 NA NA NOT_NAMED 1912-10-07 03:00:00 TS 32.3801 -75.2227 main 283 275 P_____________ AL051912 32.3801 -75.2227 HU 80 1 5 259
1912278N29272 1912 51 NA NA NOT_NAMED 1912-10-07 06:00:00 TS 32.3000 -75.5000 80 hurdat_atl main 283 280 O_____________ hurdat_atl AL051912 32.3000 -75.5000 HU 80 1 5 247
1912278N29272 1912 51 NA NA NOT_NAMED 1912-10-07 09:00:00 TS 32.1999 -75.7176 main 285 278 P_____________ AL051912 32.1999 -75.7176 HU 80 1 3 232
1912278N29272 1912 51 NA NA NOT_NAMED 1912-10-07 12:00:00 TS 32.1000 -75.8000 80 hurdat_atl main 286 286 O_____________ hurdat_atl AL051912 32.1000 -75.8000 HU 80 1 2 174
1912278N29272 1912 51 NA NA NOT_NAMED 1912-10-07 15:00:00 TS 32.0424 -75.7175 main 301 301 P_____________ AL051912 32.0424 -75.7175 HU 80 1 3 112
1912278N29272 1912 51 NA NA NOT_NAMED 1912-10-07 18:00:00 TS 32.0000 -75.5000 80 hurdat_atl main 314 314 O_____________ hurdat_atl AL051912 32.0000 -75.5000 HU 80 1 4 106
1912278N29272 1912 51 NA NA NOT_NAMED 1912-10-07 21:00:00 TS 31.9275 -75.2298 main 334 334 P_____________ AL051912 31.9275 -75.2298 HU 77 1 5 101
1912278N29272 1912 51 NA NA NOT_NAMED 1912-10-08 00:00:00 TS 31.9000 -74.9000 75 hurdat_atl main 345 345 O_____________ hurdat_atl AL051912 31.9000 -74.9000 HU 75 1 6 86
1912278N29272 1912 51 NA NA NOT_NAMED 1912-10-08 03:00:00 TS 31.9700 -74.5576 main 348 348 P_____________ AL051912 31.9700 -74.5576 HU 75 1 6 71
1912278N29272 1912 51 NA NA NOT_NAMED 1912-10-08 06:00:00 TS 32.1000 -74.2000 75 hurdat_atl main 359 356 O_____________ hurdat_atl AL051912 32.1000 -74.2000 HU 75 1 6 65
1912278N29272 1912 51 NA NA NOT_NAMED 1912-10-08 09:00:00 TS 32.2498 -73.8650 main 368 366 P_____________ AL051912 32.2498 -73.8650 HU 75 1 7 63
1912278N29272 1912 51 NA NA NOT_NAMED 1912-10-08 12:00:00 TS 32.4000 -73.5000 75 hurdat_atl main 377 377 O_____________ hurdat_atl AL051912 32.4000 -73.5000 HU 75 1 7 69
1912278N29272 1912 51 NA NA NOT_NAMED 1912-10-08 15:00:00 TS 32.5150 -73.0650 main 398 398 P_____________ AL051912 32.5150 -73.0650 HU 72 1 8 75
1912278N29272 1912 51 NA NA NOT_NAMED 1912-10-08 18:00:00 TS 32.6000 -72.6000 70 hurdat_atl main 426 426 O_____________ hurdat_atl AL051912 32.6000 -72.6000 HU 70 1 8 79
1912278N29272 1912 51 NA NA NOT_NAMED 1912-10-08 21:00:00 TS 32.6648 -72.1499 main 458 458 P_____________ AL051912 32.6648 -72.1499 HU 65 1 8 82
1912278N29272 1912 51 NA NA NOT_NAMED 1912-10-09 00:00:00 TS 32.7000 -71.7000 60 hurdat_atl main 489 489 O_____________ hurdat_atl AL051912 32.7000 -71.7000 TS 60 0 8 88
1912278N29272 1912 51 NA NA NOT_NAMED 1912-10-09 03:00:00 TS 32.6924 -71.2422 main 524 524 P_____________ AL051912 32.6924 -71.2422 TS 55 0 8 90
1912278N29272 1912 51 NA NA NOT_NAMED 1912-10-09 06:00:00 TS 32.7000 -70.8000 50 hurdat_atl main 552 552 O_____________ hurdat_atl AL051912 32.7000 -70.8000 TS 50 0 7 83
1912278N29272 1912 51 NA NA NOT_NAMED 1912-10-09 09:00:00 TS 32.7850 -70.3702 main 574 574 P_____________ AL051912 32.7850 -70.3702 TS 45 0 7 73
1912278N29272 1912 51 NA NA NOT_NAMED 1912-10-09 12:00:00 TS 32.9000 -70.0000 40 hurdat_atl main 598 598 O_____________ hurdat_atl AL051912 32.9000 -70.0000 TS 40 0 6 69
1912278N29272 1912 51 NA NA NOT_NAMED 1912-10-09 15:00:00 TS 32.9924 -69.7124 main 615 615 P_____________ AL051912 32.9924 -69.7124 TS 37 0 5 65
1912278N29272 1912 51 NA NA NOT_NAMED 1912-10-09 18:00:00 TS 33.1000 -69.5000 35 hurdat_atl main 625 625 O_____________ hurdat_atl AL051912 33.1000 -69.5000 TS 35 0 4 53
1912278N29272 1912 51 NA NA NOT_NAMED 1912-10-09 21:00:00 TS 33.2425 -69.3200 main 636 631 P_____________ AL051912 33.2425 -69.3200 TS 32 -1 4 40
1912278N29272 1912 51 NA NA NOT_NAMED 1912-10-10 00:00:00 TS 33.4000 -69.2000 30 hurdat_atl main 634 629 O_____________ hurdat_atl AL051912 33.4000 -69.2000 TD 30 -1 3 26
1912278N29272 1912 51 NA NA NOT_NAMED 1912-10-10 03:00:00 TS 33.5500 -69.1349 main 637 628 P_____________ AL051912 33.5500 -69.1349 TD 30 -1 3 14
1912278N29272 1912 51 NA NA NOT_NAMED 1912-10-10 06:00:00 TS 33.7000 -69.1000 30 hurdat_atl main 628 624 O_____________ hurdat_atl AL051912 33.7000 -69.1000 TD 30 -1 3 16
1912278N29272 1912 51 NA NA NOT_NAMED 1912-10-10 09:00:00 TS 33.8350 -69.0425 main 632 624 P_____________ AL051912 33.8350 -69.0425 TD 30 -1 3 14
1912278N29272 1912 51 NA NA NOT_NAMED 1912-10-10 12:00:00 TS 34.0000 -69.0000 30 hurdat_atl main 624 616 O_____________ hurdat_atl AL051912 34.0000 -69.0000 TD 30 -1 4 7
1912278N29272 1912 51 NA NA NOT_NAMED 1912-10-10 15:00:00 TS 34.2300 -68.9900 main 616 607 P_____________ AL051912 34.2300 -68.9900 TD 27 -1 5 2
1912278N29272 1912 51 NA NA NOT_NAMED 1912-10-10 18:00:00 TS 34.5000 -69.0000 25 hurdat_atl main 607 O_____________ hurdat_atl AL051912 34.5000 -69.0000 TD 25 -1 5 355

IBTrACS Databaseについて

本データベースは、米国NOAAが公開する1842年以降の世界の熱帯低気圧のベストトラックデータアーカイブInternational Best Track Archive for Climate Stewardship (IBTrACS)を、ウェブで閲覧しやすい形式に変換したものです。

最終更新日:2021-10-27